Time;durP1;ratioP1;P1;durP2;ratioP2;P2;SDS_P1;SDS_P2;PMS_P1;PMS_P2;Temp;Humidity;BMP_temperature;BMP_pressure;BME280_temperature;BME280_humidity;BME280_pressure;Samples;Min_cycle;Max_cycle;Signal;HPM_P1;HPM_P2
2022/06/27 00:00:35;;;;;;;3.47;3.17;;;14.20;58.00;;;;;;4973008;28;20780;-44
2022/06/27 00:03:07;;;;;;;3.38;3.08;;;14.20;58.00;;;;;;4972714;28;20209;-44
2022/06/27 00:05:37;;;;;;;3.70;3.40;;;14.30;58.00;;;;;;4972390;28;20233;-45
2022/06/27 00:08:09;;;;;;;3.50;3.20;;;14.30;58.00;;;;;;4972439;28;20205;-47
2022/06/27 00:10:39;;;;;;;3.78;3.47;;;14.30;58.10;;;;;;4973182;28;20650;-46
2022/06/27 00:13:10;;;;;;;3.67;3.38;;;14.30;58.10;;;;;;4973146;28;20194;-45
2022/06/27 00:15:43;;;;;;;3.33;3.03;;;14.30;58.20;;;;;;4972786;28;20234;-48
2022/06/27 00:18:13;;;;;;;4.53;3.50;;;14.30;58.10;;;;;;4972381;28;20269;-45
2022/06/27 00:20:44;;;;;;;3.78;3.15;;;14.40;58.20;;;;;;4972479;28;20708;-45
2022/06/27 00:23:15;;;;;;;3.33;3.03;;;14.40;58.20;;;;;;4972277;28;20195;-45
2022/06/27 00:25:46;;;;;;;4.93;3.20;;;14.40;58.20;;;;;;4972023;28;20619;-47
2022/06/27 00:28:16;;;;;;;3.53;3.20;;;14.40;58.10;;;;;;4972364;28;20198;-45
2022/06/27 00:30:49;;;;;;;3.10;2.80;;;14.50;58.10;;;;;;4972537;28;20202;-47
2022/06/27 00:33:19;;;;;;;4.45;3.25;;;14.50;58.10;;;;;;4972436;28;20198;-47
2022/06/27 01:36:53;;;;;;;12.02;9.27;;;14.80;57.70;;;;;;5569332;23;20228;-54
2022/06/27 01:39:24;;;;;;;15.23;11.48;;;14.80;57.70;;;;;;4914309;29;20204;-54
2022/06/27 01:41:56;;;;;;;13.40;11.13;;;14.80;57.80;;;;;;4914420;29;20291;-53
2022/06/27 01:44:29;;;;;;;12.20;10.90;;;14.80;57.80;;;;;;4914178;29;20259;-51
2022/06/27 01:47:08;;;;;;;12.15;9.88;;;14.80;57.90;;;;;;4912752;29;20200;-51
2022/06/27 01:49:40;;;;;;;12.45;11.02;;;14.90;57.90;;;;;;4894284;29;20268;-53
2022/06/27 01:52:16;;;;;;;13.85;11.45;;;14.90;57.90;;;;;;4901306;29;20192;-50
2022/06/27 01:54:47;;;;;;;13.10;11.00;;;14.90;57.90;;;;;;4914063;29;20703;-52
2022/06/27 01:57:19;;;;;;;13.63;11.52;;;14.90;57.90;;;;;;4913877;29;20204;-53
2022/06/27 01:59:51;;;;;;;12.88;11.07;;;14.90;57.90;;;;;;4914126;29;20275;-54
2022/06/27 02:02:22;;;;;;;11.63;10.18;;;14.90;57.90;;;;;;4914058;29;20237;-52
2022/06/27 02:04:53;;;;;;;11.43;9.95;;;14.90;57.90;;;;;;4913763;29;20234;-52
2022/06/27 02:07:26;;;;;;;12.32;10.55;;;14.90;57.80;;;;;;4912813;29;20200;-50
2022/06/27 02:09:57;;;;;;;13.05;10.80;;;14.90;57.70;;;;;;4913715;29;20204;-55
2022/06/27 02:12:28;;;;;;;13.30;10.90;;;15.00;57.80;;;;;;4906958;29;20284;-52
2022/06/27 02:14:59;;;;;;;11.95;9.75;;;15.00;57.70;;;;;;4894762;29;20277;-52
2022/06/27 02:17:30;;;;;;;13.77;10.43;;;15.00;58.30;;;;;;4895101;29;20205;-55
2022/06/27 02:20:02;;;;;;;11.80;10.52;;;15.00;57.60;;;;;;4895108;29;20204;-53
2022/06/27 02:22:35;;;;;;;12.77;11.20;;;15.00;57.70;;;;;;4902731;29;20242;-49
2022/06/27 02:25:06;;;;;;;12.38;11.00;;;15.00;57.70;;;;;;4900958;29;20681;-50
2022/06/27 02:28:18;;;;;;;13.40;11.57;;;15.00;57.70;;;;;;4895297;29;20205;-52
2022/06/27 02:30:49;;;;;;;14.55;11.80;;;15.00;57.70;;;;;;4895212;29;20240;-52
2022/06/27 02:33:20;;;;;;;13.45;12.05;;;15.10;57.80;;;;;;4895865;29;20209;-48
2022/06/27 02:35:57;;;;;;;15.82;12.25;;;15.10;57.80;;;;;;4895169;29;20217;-50
2022/06/27 02:38:31;;;;;;;15.85;12.77;;;15.10;57.80;;;;;;4909136;29;20204;-47
2022/06/27 02:41:05;;;;;;;13.82;12.35;;;15.10;57.90;;;;;;4914072;29;20202;-48
2022/06/27 02:43:38;;;;;;;13.38;11.93;;;15.10;57.90;;;;;;4913898;29;20207;-46
2022/06/27 02:46:09;;;;;;;12.70;11.13;;;15.10;57.80;;;;;;4913780;29;20232;-46
2022/06/27 02:48:41;;;;;;;12.82;11.32;;;15.10;57.80;;;;;;4900519;29;20213;-47
2022/06/27 02:51:17;;;;;;;14.07;11.30;;;15.10;57.70;;;;;;4895096;29;20212;-49
2022/06/27 02:53:56;;;;;;;14.38;12.18;;;15.20;57.70;;;;;;4911026;29;20569;-45
2022/06/27 02:56:29;;;;;;;12.82;11.38;;;15.10;57.60;;;;;;4913446;29;20216;-47
2022/06/27 02:59:06;;;;;;;12.35;10.93;;;15.20;57.60;;;;;;4913624;29;20208;-51
2022/06/27 03:01:39;;;;;;;12.32;11.10;;;15.20;57.60;;;;;;4913154;29;20664;-51
2022/06/27 03:04:10;;;;;;;11.90;10.60;;;15.20;57.60;;;;;;4913254;29;20204;-52
2022/06/27 03:06:41;;;;;;;12.50;11.20;;;15.20;57.60;;;;;;4913603;29;20216;-47
2022/06/27 03:09:14;;;;;;;14.85;11.27;;;15.20;57.60;;;;;;4914651;29;20207;-49
2022/06/27 03:11:45;;;;;;;12.73;11.35;;;15.20;57.60;;;;;;4916867;29;20211;-50
2022/06/27 03:14:15;;;;;;;12.98;10.90;;;15.20;57.60;;;;;;4916859;29;20196;-49
2022/06/27 03:16:46;;;;;;;14.25;11.88;;;15.20;57.60;;;;;;4916557;29;20321;-53
2022/06/27 03:19:17;;;;;;;14.32;11.27;;;15.20;57.60;;;;;;4898750;29;20215;-51
2022/06/27 03:21:48;;;;;;;13.85;11.77;;;15.20;57.60;;;;;;4898266;29;20205;-48
2022/06/27 03:24:20;;;;;;;13.73;11.25;;;15.20;57.60;;;;;;4897605;29;20673;-50
2022/06/27 03:26:51;;;;;;;13.30;11.68;;;15.30;57.70;;;;;;4897726;29;20692;-51
2022/06/27 03:29:22;;;;;;;13.10;11.75;;;15.30;57.60;;;;;;4897729;29;20634;-49
2022/06/27 03:31:53;;;;;;;12.10;10.88;;;15.30;57.60;;;;;;4897505;29;20201;-50
2022/06/27 03:34:24;;;;;;;12.93;11.35;;;15.30;57.60;;;;;;4897335;29;20220;-51
2022/06/27 03:36:54;;;;;;;13.30;11.70;;;15.30;57.60;;;;;;4897553;29;20205;-47
2022/06/27 03:39:27;;;;;;;11.98;10.55;;;15.30;57.60;;;;;;4915992;29;20200;-54
2022/06/27 03:41:58;;;;;;;13.50;11.75;;;15.30;57.50;;;;;;4916644;29;20200;-50
2022/06/27 03:44:29;;;;;;;14.35;11.60;;;15.30;57.50;;;;;;4916630;29;20220;-49
2022/06/27 03:47:00;;;;;;;13.35;11.18;;;15.30;57.50;;;;;;4916276;29;20204;-51
2022/06/27 03:52:17;;;;;;;14.10;11.65;;;15.40;57.50;;;;;;4898639;29;20215;-51
2022/06/27 03:54:50;;;;;;;13.32;11.23;;;15.40;57.50;;;;;;4906442;29;20217;-47
2022/06/27 03:57:20;;;;;;;13.73;10.48;;;15.30;57.40;;;;;;4897455;29;20208;-52
2022/06/27 03:59:51;;;;;;;13.00;10.45;;;15.40;57.50;;;;;;4896981;29;20209;-53
2022/06/27 04:02:22;;;;;;;12.63;10.80;;;15.30;57.50;;;;;;4897141;29;20197;-50
2022/06/27 04:04:52;;;;;;;13.65;10.77;;;15.30;57.50;;;;;;4896769;29;20259;-51
2022/06/27 04:07:23;;;;;;;11.48;10.25;;;15.40;57.50;;;;;;4898351;29;20212;-49
2022/06/27 04:09:59;;;;;;;12.25;10.95;;;15.40;57.50;;;;;;4915594;29;20204;-52
2022/06/27 04:12:29;;;;;;;11.50;10.32;;;15.40;57.50;;;;;;4915977;29;20219;-52
2022/06/27 04:15:00;;;;;;;12.13;10.60;;;15.40;57.50;;;;;;4915660;29;20336;-48
2022/06/27 04:17:31;;;;;;;11.93;10.68;;;15.40;57.60;;;;;;4911161;29;20670;-49
2022/06/27 04:20:02;;;;;;;11.80;10.15;;;15.40;57.50;;;;;;4895311;29;20197;-50
2022/06/27 04:22:33;;;;;;;11.82;10.02;;;15.40;57.50;;;;;;4897794;29;20205;-47
2022/06/27 04:25:07;;;;;;;10.85;9.73;;;15.40;57.40;;;;;;4915457;29;20235;-49
2022/06/27 04:27:37;;;;;;;12.57;10.68;;;15.40;57.40;;;;;;4915484;29;20226;-49
2022/06/27 04:30:09;;;;;;;11.93;10.40;;;15.50;57.40;;;;;;4915613;29;20204;-49
2022/06/27 04:32:40;;;;;;;11.18;10.07;;;15.50;57.40;;;;;;4915147;29;20207;-55
2022/06/27 04:35:11;;;;;;;9.90;8.90;;;15.50;57.40;;;;;;4899833;29;20217;-51
2022/06/27 04:37:43;;;;;;;10.57;9.35;;;15.50;57.40;;;;;;4898989;29;20252;-55
2022/06/27 04:40:19;;;;;;;11.63;9.82;;;15.50;57.40;;;;;;4904971;29;20286;-45
2022/06/27 04:42:50;;;;;;;10.95;9.85;;;15.50;57.50;;;;;;4897461;29;20211;-47
2022/06/27 04:45:21;;;;;;;11.10;9.88;;;15.50;57.40;;;;;;4896150;29;20245;-50
2022/06/27 04:47:56;;;;;;;10.02;9.02;;;15.50;57.40;;;;;;4896335;29;20205;-53
2022/06/27 04:50:27;;;;;;;11.35;9.93;;;15.50;57.40;;;;;;4896599;29;20247;-48
2022/06/27 04:53:00;;;;;;;10.88;9.13;;;15.50;57.40;;;;;;4897083;29;20200;-50
2022/06/27 04:55:32;;;;;;;10.10;8.73;;;15.50;57.40;;;;;;4897238;29;20217;-51
2022/06/27 04:58:03;;;;;;;10.32;9.23;;;15.50;57.40;;;;;;4896639;29;20226;-49
2022/06/27 05:00:34;;;;;;;9.65;8.57;;;15.50;57.50;;;;;;4896506;29;20205;-49
2022/06/27 05:03:05;;;;;;;9.90;8.80;;;15.50;57.40;;;;;;4896553;29;20197;-51
2022/06/27 05:05:36;;;;;;;9.30;8.32;;;15.50;57.40;;;;;;4896091;29;20241;-49
2022/06/27 05:08:09;;;;;;;9.20;8.30;;;15.50;57.40;;;;;;4896826;29;20552;-53
2022/06/27 05:10:42;;;;;;;9.70;8.70;;;15.60;57.50;;;;;;4896154;29;20616;-51
2022/06/27 05:13:13;;;;;;;10.32;8.45;;;15.50;57.40;;;;;;4896794;29;20208;-51
2022/06/27 05:15:44;;;;;;;9.70;8.63;;;15.50;57.40;;;;;;4896116;29;20671;-48
2022/06/27 05:18:15;;;;;;;10.07;8.52;;;15.50;57.40;;;;;;4896369;29;20775;-54
2022/06/27 05:20:47;;;;;;;9.95;8.27;;;15.50;57.40;;;;;;4896385;29;20259;-49
2022/06/27 05:23:18;;;;;;;8.45;7.60;;;15.50;57.50;;;;;;4896055;29;20229;-47
2022/06/27 05:25:50;;;;;;;9.45;8.00;;;15.50;57.60;;;;;;4895630;29;20233;-51
2022/06/27 05:28:21;;;;;;;8.55;7.75;;;15.60;57.80;;;;;;4896434;29;20201;-53
2022/06/27 05:30:52;;;;;;;7.88;7.07;;;15.60;57.90;;;;;;4895623;29;20205;-48
2022/06/27 05:33:23;;;;;;;7.57;6.63;;;15.60;58.20;;;;;;4896421;29;20197;-49
2022/06/27 05:35:54;;;;;;;8.80;6.78;;;15.60;58.50;;;;;;4895056;29;20285;-51
2022/06/27 05:38:24;;;;;;;7.63;6.72;;;15.70;58.60;;;;;;4895895;29;20201;-51
2022/06/27 05:40:57;;;;;;;7.35;6.65;;;15.70;58.50;;;;;;4896102;29;20201;-49
2022/06/27 05:43:28;;;;;;;7.55;6.78;;;15.70;58.50;;;;;;4895173;29;20248;-49
2022/06/27 05:45:58;;;;;;;7.60;6.80;;;15.70;58.30;;;;;;4896093;29;20221;-49
2022/06/27 05:48:29;;;;;;;7.78;6.93;;;15.70;58.20;;;;;;4895554;29;20603;-50
2022/06/27 05:51:00;;;;;;;7.07;6.38;;;15.70;58.20;;;;;;4895853;29;20308;-50
2022/06/27 05:53:32;;;;;;;7.95;7.15;;;15.70;58.10;;;;;;4895715;29;20232;-50
2022/06/27 05:56:05;;;;;;;7.60;6.90;;;15.70;58.10;;;;;;4895604;29;20693;-51
2022/06/27 05:58:36;;;;;;;7.30;6.55;;;15.70;58.00;;;;;;4895879;29;20272;-52
2022/06/27 06:01:08;;;;;;;8.05;7.13;;;15.70;58.00;;;;;;4896034;29;20243;-53
2022/06/27 06:03:39;;;;;;;7.70;6.95;;;15.70;58.00;;;;;;4895624;29;20961;-50
2022/06/27 06:06:10;;;;;;;8.10;6.70;;;15.70;57.90;;;;;;4895862;29;20264;-53
2022/06/27 06:08:43;;;;;;;7.40;6.57;;;15.70;57.90;;;;;;4896539;29;20208;-50
2022/06/27 06:11:15;;;;;;;7.40;6.70;;;15.70;58.00;;;;;;4894821;29;20200;-47
2022/06/27 06:13:46;;;;;;;8.13;7.32;;;15.70;57.90;;;;;;4896157;29;20211;-51
2022/06/27 06:16:19;;;;;;;7.18;6.50;;;15.70;58.50;;;;;;4894866;29;20221;-51
2022/06/27 06:18:52;;;;;;;7.53;6.60;;;15.70;57.90;;;;;;4897298;29;20197;-54
2022/06/27 06:21:23;;;;;;;7.28;6.50;;;15.70;58.00;;;;;;4895162;29;20875;-52
2022/06/27 06:23:54;;;;;;;7.72;6.63;;;15.60;57.90;;;;;;4896215;29;20778;-58
2022/06/27 06:26:27;;;;;;;7.30;6.00;;;15.60;58.00;;;;;;4895234;29;20601;-52
2022/06/27 06:28:59;;;;;;;7.05;6.05;;;15.70;57.80;;;;;;4893616;29;20216;-54
2022/06/27 06:31:29;;;;;;;6.10;5.50;;;15.60;57.70;;;;;;4895540;29;20228;-48
2022/06/27 06:34:00;;;;;;;6.10;5.57;;;15.60;57.60;;;;;;4895677;29;20201;-46
2022/06/27 06:36:31;;;;;;;8.32;5.82;;;15.60;57.60;;;;;;4895635;29;20224;-45
2022/06/27 06:39:08;;;;;;;6.97;5.85;;;15.60;57.60;;;;;;4895198;29;20657;-49
2022/06/27 06:41:41;;;;;;;6.30;5.70;;;15.70;57.90;;;;;;4894658;29;20212;-46
2022/06/27 06:44:12;;;;;;;7.13;5.93;;;15.70;57.90;;;;;;4896339;29;20200;-46
2022/06/27 06:46:43;;;;;;;7.22;6.28;;;15.70;57.90;;;;;;4899565;29;20232;-46
2022/06/27 06:49:14;;;;;;;9.00;8.10;;;15.70;57.90;;;;;;4898885;29;20260;-47
2022/06/27 06:51:44;;;;;;;7.50;6.75;;;15.70;57.90;;;;;;4899416;29;20197;-49
2022/06/27 06:54:15;;;;;;;6.88;6.28;;;15.70;57.90;;;;;;4899062;29;20205;-48
2022/06/27 06:56:50;;;;;;;7.20;6.50;;;15.60;57.80;;;;;;4898637;29;20291;-51
2022/06/27 06:59:21;;;;;;;7.57;6.78;;;15.60;57.80;;;;;;4899613;29;20252;-50
2022/06/27 07:01:53;;;;;;;7.07;6.38;;;15.60;57.80;;;;;;4898717;29;20538;-48
2022/06/27 07:04:26;;;;;;;7.82;7.03;;;15.60;57.80;;;;;;4899071;29;20241;-48
2022/06/27 07:06:58;;;;;;;9.25;7.07;;;15.60;57.90;;;;;;4897828;29;20228;-49
2022/06/27 07:09:29;;;;;;;10.32;7.93;;;15.60;57.90;;;;;;4898709;29;20201;-49
2022/06/27 07:12:02;;;;;;;8.43;7.57;;;15.60;57.90;;;;;;4896438;29;20597;-52
2022/06/27 07:14:33;;;;;;;9.02;7.95;;;15.60;57.90;;;;;;4899105;29;20280;-49
2022/06/27 07:17:03;;;;;;;11.43;9.25;;;15.60;57.90;;;;;;4898482;29;20197;-50
2022/06/27 07:19:35;;;;;;;9.23;8.05;;;15.60;58.00;;;;;;4898425;29;20197;-50
2022/06/27 07:22:06;;;;;;;11.10;9.57;;;15.60;57.90;;;;;;4898758;29;20697;-49
2022/06/27 07:24:37;;;;;;;11.27;10.00;;;15.60;57.90;;;;;;4898432;29;20213;-50
2022/06/27 07:27:09;;;;;;;11.98;10.07;;;15.60;57.90;;;;;;4899166;29;20228;-51
2022/06/27 07:29:40;;;;;;;10.90;9.63;;;15.60;58.00;;;;;;4911412;29;20197;-51
2022/06/27 07:32:11;;;;;;;10.80;9.60;;;15.60;58.00;;;;;;4917178;29;20563;-51
2022/06/27 07:34:42;;;;;;;12.32;10.20;;;15.60;57.90;;;;;;4916597;29;20402;-53
2022/06/27 07:37:13;;;;;;;11.73;9.75;;;15.60;57.90;;;;;;4917862;29;20208;-52
2022/06/27 07:39:43;;;;;;;14.85;10.75;;;15.60;58.00;;;;;;4918375;29;20196;-50
2022/06/27 07:42:16;;;;;;;11.63;10.35;;;15.60;58.00;;;;;;4917779;29;20298;-51
2022/06/27 07:44:47;;;;;;;12.30;10.80;;;15.60;58.00;;;;;;4908087;29;20227;-50
2022/06/27 07:47:19;;;;;;;12.93;11.50;;;15.60;58.00;;;;;;4898843;29;20693;-51
2022/06/27 07:49:49;;;;;;;13.55;11.80;;;15.60;58.10;;;;;;4900660;29;20209;-51
2022/06/27 07:52:20;;;;;;;15.35;12.90;;;15.50;58.10;;;;;;4917310;29;20200;-50
2022/06/27 07:54:51;;;;;;;14.70;11.95;;;15.50;58.10;;;;;;4916726;29;20216;-50
2022/06/27 07:57:24;;;;;;;16.65;12.40;;;15.60;58.20;;;;;;4917648;29;20203;-48
2022/06/27 07:59:54;;;;;;;15.27;12.93;;;15.50;58.20;;;;;;4917442;29;20200;-50
2022/06/27 08:02:25;;;;;;;12.70;11.32;;;15.50;58.10;;;;;;4916982;29;20291;-51
2022/06/27 08:04:56;;;;;;;13.70;12.30;;;15.60;58.20;;;;;;4913719;29;20697;-50
2022/06/27 08:07:27;;;;;;;14.73;11.75;;;15.50;58.20;;;;;;4916779;29;20231;-50
2022/06/27 08:09:57;;;;;;;13.30;11.93;;;15.50;58.20;;;;;;4917262;29;20283;-51
2022/06/27 08:12:31;;;;;;;15.00;12.63;;;15.60;58.20;;;;;;4915800;29;20252;-51
2022/06/27 08:15:01;;;;;;;17.13;12.15;;;15.50;58.20;;;;;;4896299;29;20217;-53
2022/06/27 08:17:32;;;;;;;16.13;12.93;;;15.50;58.20;;;;;;4897766;29;20734;-53
2022/06/27 08:20:03;;;;;;;14.20;12.27;;;15.50;58.20;;;;;;4899516;29;20200;-50
2022/06/27 08:22:34;;;;;;;14.40;12.20;;;15.50;58.20;;;;;;4902574;29;20197;-49
2022/06/27 08:25:05;;;;;;;14.20;12.20;;;15.50;58.20;;;;;;4897748;29;20225;-51
2022/06/27 08:27:38;;;;;;;8.93;5.93;;;15.50;58.20;;;;;;4897992;29;20237;-60
2022/06/27 08:30:09;;;;;;;11.77;4.85;;;15.50;58.30;;;;;;4898395;29;20205;-60
2022/06/27 08:32:40;;;;;;;9.52;4.93;;;15.50;58.40;;;;;;4897891;29;20240;-50
2022/06/27 08:35:11;;;;;;;8.77;4.85;;;15.40;58.40;;;;;;4899052;29;20632;-49
2022/06/27 08:37:43;;;;;;;11.73;5.43;;;15.40;58.50;;;;;;4916381;29;20208;-51
2022/06/27 08:40:17;;;;;;;9.02;4.90;;;15.30;58.60;;;;;;4916784;29;20200;-49
2022/06/27 08:42:50;;;;;;;9.55;5.35;;;15.40;58.80;;;;;;4916459;29;20653;-52
2022/06/27 08:45:23;;;;;;;8.90;5.30;;;15.30;58.80;;;;;;4916017;29;20224;-51
2022/06/27 08:47:54;;;;;;;8.20;5.15;;;15.40;58.80;;;;;;4909327;29;20348;-51
2022/06/27 08:50:25;;;;;;;8.60;5.15;;;15.40;59.40;;;;;;4901362;29;20255;-50
2022/06/27 08:52:58;;;;;;;16.27;10.95;;;15.40;58.80;;;;;;4916481;29;20196;-51
2022/06/27 08:55:30;;;;;;;19.15;12.55;;;15.40;59.50;;;;;;4907920;29;20228;-50
2022/06/27 08:58:06;;;;;;;15.35;11.13;;;15.40;60.50;;;;;;4895067;29;20291;-50
2022/06/27 09:00:40;;;;;;;13.90;10.07;;;15.50;61.00;;;;;;4896030;29;20193;-52
2022/06/27 09:03:12;;;;;;;12.65;9.00;;;15.50;60.90;;;;;;4896792;29;20203;-50
2022/06/27 09:05:45;;;;;;;14.23;9.77;;;15.50;60.80;;;;;;4901312;29;20231;-49
2022/06/27 09:08:15;;;;;;;13.35;9.13;;;15.50;60.70;;;;;;4914046;29;20228;-51
2022/06/27 09:10:46;;;;;;;15.05;9.40;;;15.60;60.70;;;;;;4899883;29;20201;-50
2022/06/27 09:13:20;;;;;;;12.38;8.48;;;15.50;60.50;;;;;;4896264;29;20873;-49
2022/06/27 09:15:55;;;;;;;12.52;8.43;;;15.50;60.30;;;;;;4883727;29;20240;-50
2022/06/27 09:18:27;;;;;;;13.02;8.65;;;15.50;60.20;;;;;;4896228;29;20204;-49
2022/06/27 09:21:00;;;;;;;13.95;8.77;;;15.50;60.10;;;;;;4896755;29;20197;-50
2022/06/27 09:23:39;;;;;;;11.50;8.45;;;15.50;60.10;;;;;;4895859;29;20201;-50
2022/06/27 09:26:14;;;;;;;11.80;8.55;;;15.50;60.00;;;;;;4896238;29;20223;-52
2022/06/27 09:28:54;;;;;;;12.60;8.35;;;15.50;59.90;;;;;;4895967;29;20204;-50
2022/06/27 09:31:36;;;;;;;11.68;8.00;;;15.50;59.90;;;;;;4896144;29;20330;-53
2022/06/27 09:34:10;;;;;;;9.77;7.35;;;15.60;59.90;;;;;;4894770;29;20208;-51
2022/06/27 09:36:42;;;;;;;10.70;8.00;;;15.50;59.80;;;;;;4896017;29;20212;-50
2022/06/27 09:39:24;;;;;;;13.15;8.20;;;15.50;59.70;;;;;;4895741;29;20205;-51
2022/06/27 09:42:00;;;;;;;11.10;7.88;;;15.60;59.70;;;;;;4896546;29;20665;-51
2022/06/27 09:44:35;;;;;;;10.50;8.02;;;15.50;59.70;;;;;;4895056;29;20227;-50
2022/06/27 09:47:08;;;;;;;11.98;7.50;;;15.50;59.60;;;;;;4894722;29;20222;-49
2022/06/27 09:49:41;;;;;;;9.48;7.82;;;15.50;59.60;;;;;;4894406;29;20594;-53
2022/06/27 09:52:13;;;;;;;10.13;7.68;;;15.50;59.60;;;;;;4895532;29;20680;-52
2022/06/27 09:54:46;;;;;;;12.65;8.15;;;15.50;59.60;;;;;;4896229;29;20236;-50
2022/06/27 09:57:17;;;;;;;10.80;7.60;;;15.50;59.60;;;;;;4895311;29;20204;-51
2022/06/27 09:59:53;;;;;;;11.85;7.60;;;15.50;59.60;;;;;;4895990;29;20249;-53
2022/06/27 10:02:24;;;;;;;9.05;7.45;;;15.50;59.60;;;;;;4895748;29;20223;-54
2022/06/27 10:04:55;;;;;;;10.20;7.07;;;15.50;59.50;;;;;;4894482;29;20299;-52
2022/06/27 10:07:26;;;;;;;8.75;7.22;;;15.50;59.50;;;;;;4910576;29;20223;-54
2022/06/27 10:09:57;;;;;;;10.00;7.32;;;15.50;59.50;;;;;;4901442;29;20197;-48
2022/06/27 10:12:31;;;;;;;10.30;7.30;;;15.50;59.50;;;;;;4894273;29;20200;-45
2022/06/27 10:15:30;;;;;;;9.63;7.00;;;15.50;59.50;;;;;;4895259;29;20279;-47
2022/06/27 10:18:02;;;;;;;10.25;7.15;;;15.50;59.50;;;;;;4895173;29;20197;-46
2022/06/27 10:20:38;;;;;;;9.65;7.05;;;15.50;59.40;;;;;;4898903;29;20203;-49
2022/06/27 10:23:37;;;;;;;8.48;7.18;;;15.50;59.40;;;;;;4881005;29;20221;-46
2022/06/27 10:26:08;;;;;;;9.63;7.40;;;15.50;59.40;;;;;;4884978;29;20231;-45
2022/06/27 10:28:40;;;;;;;8.18;6.57;;;15.50;59.40;;;;;;4899033;29;20228;-46
2022/06/27 10:31:19;;;;;;;9.32;7.18;;;15.50;59.40;;;;;;4898898;29;20244;-52
2022/06/27 10:33:52;;;;;;;8.98;6.43;;;15.50;59.40;;;;;;4899376;29;20207;-48
2022/06/27 10:36:23;;;;;;;8.52;6.68;;;15.50;59.30;;;;;;4898510;29;20227;-49
2022/06/27 10:39:01;;;;;;;9.02;6.30;;;15.40;59.30;;;;;;4898415;29;20213;-48
2022/06/27 10:41:45;;;;;;;7.72;6.40;;;15.40;59.30;;;;;;4899144;29;20230;-50
2022/06/27 10:44:36;;;;;;;8.25;6.50;;;15.40;59.30;;;;;;4898537;29;20286;-52
2022/06/27 10:47:29;;;;;;;8.35;6.10;;;15.40;59.30;;;;;;4898297;29;20220;-49
2022/06/27 10:50:15;;;;;;;8.23;6.03;;;15.40;59.30;;;;;;4898768;29;20227;-48
2022/06/27 10:52:46;;;;;;;8.80;7.20;;;15.40;59.30;;;;;;4898671;29;20196;-51
2022/06/27 10:55:27;;;;;;;8.57;6.82;;;15.40;59.30;;;;;;4898701;29;20259;-53
2022/06/27 10:57:59;;;;;;;8.52;5.93;;;15.40;59.30;;;;;;4898847;29;20208;-50
2022/06/27 11:00:50;;;;;;;7.75;5.97;;;15.40;59.30;;;;;;4899103;29;20672;-51
2022/06/27 11:03:28;;;;;;;8.15;6.20;;;15.40;59.30;;;;;;4898200;29;20729;-50
2022/06/27 11:06:04;;;;;;;9.50;6.00;;;15.40;59.30;;;;;;4899306;29;20221;-51
2022/06/27 11:08:37;;;;;;;7.72;5.97;;;15.40;59.30;;;;;;4917438;29;20250;-52
2022/06/27 11:11:08;;;;;;;7.63;5.95;;;15.40;59.30;;;;;;4917205;29;20212;-51
2022/06/27 11:13:47;;;;;;;8.48;5.78;;;15.50;59.30;;;;;;4917319;29;20211;-52
2022/06/27 11:16:19;;;;;;;9.77;5.93;;;15.40;59.20;;;;;;4900404;29;20220;-46
2022/06/27 11:18:53;;;;;;;7.03;5.72;;;15.40;59.20;;;;;;4898629;29;20205;-51
2022/06/27 11:21:25;;;;;;;8.40;5.93;;;15.40;59.20;;;;;;4897686;29;20197;-53
2022/06/27 11:23:58;;;;;;;9.38;6.00;;;15.40;59.30;;;;;;4898063;29;20205;-46
2022/06/27 11:26:31;;;;;;;8.13;5.40;;;15.40;59.30;;;;;;4897785;29;20220;-49
2022/06/27 11:32:07;;;;;;;7.60;5.47;;;15.40;59.40;;;;;;4897672;29;20208;-48
2022/06/27 11:34:41;;;;;;;9.00;6.10;;;15.40;59.20;;;;;;4897335;29;20220;-50
2022/06/27 11:37:13;;;;;;;7.72;5.60;;;15.40;59.30;;;;;;4897233;29;20662;-47
2022/06/27 11:39:44;;;;;;;6.80;5.43;;;15.40;59.30;;;;;;4897600;29;20787;-50
2022/06/27 11:42:15;;;;;;;6.68;4.93;;;15.40;59.30;;;;;;4897533;29;20211;-47
2022/06/27 11:45:07;;;;;;;7.20;5.47;;;15.40;59.30;;;;;;4916389;29;20221;-48
2022/06/27 11:47:40;;;;;;;8.07;5.50;;;15.40;59.30;;;;;;4910894;29;20272;-49
2022/06/27 11:50:14;;;;;;;6.78;4.95;;;15.40;59.20;;;;;;4896591;29;20239;-50
2022/06/27 11:52:46;;;;;;;8.23;5.43;;;15.40;59.20;;;;;;4895605;29;20205;-48
2022/06/27 11:55:19;;;;;;;8.07;5.78;;;15.40;59.30;;;;;;4895961;29;20713;-46
2022/06/27 11:57:54;;;;;;;8.23;5.07;;;15.40;59.20;;;;;;4910036;29;20370;-49
2022/06/27 12:00:26;;;;;;;7.80;5.57;;;15.40;59.20;;;;;;4916299;29;20648;-52
2022/06/27 12:03:05;;;;;;;6.60;5.05;;;15.40;59.20;;;;;;4902308;29;20251;-50
2022/06/27 12:05:38;;;;;;;7.63;5.32;;;15.40;59.30;;;;;;4896358;29;20696;-47
2022/06/27 12:08:10;;;;;;;6.85;4.78;;;15.40;59.30;;;;;;4896812;29;20267;-48
2022/06/27 12:10:44;;;;;;;6.38;4.70;;;15.40;59.30;;;;;;4896998;29;20197;-48
2022/06/27 12:13:17;;;;;;;6.15;5.07;;;15.40;59.20;;;;;;4908571;29;20296;-47
2022/06/27 12:15:49;;;;;;;6.97;5.22;;;15.40;59.30;;;;;;4877772;29;20789;-51
2022/06/27 12:18:21;;;;;;;7.35;4.97;;;15.40;59.30;;;;;;4888140;29;20212;-48
2022/06/27 12:20:54;;;;;;;7.57;4.82;;;15.30;59.30;;;;;;4896491;29;20201;-50
2022/06/27 12:23:25;;;;;;;6.88;4.63;;;15.30;59.30;;;;;;4896847;29;20256;-49
2022/06/27 12:25:55;;;;;;;8.60;5.55;;;15.40;59.30;;;;;;4896562;29;20247;-50
2022/06/27 12:28:26;;;;;;;6.63;5.10;;;15.40;59.30;;;;;;4912491;29;20240;-50
2022/06/27 12:30:57;;;;;;;8.00;4.70;;;15.40;59.30;;;;;;4915269;29;20207;-49
2022/06/27 12:33:28;;;;;;;7.97;4.85;;;15.40;59.40;;;;;;4915022;29;20199;-54
2022/06/27 12:36:00;;;;;;;6.57;4.35;;;15.40;59.30;;;;;;4914514;29;20231;-51
2022/06/27 12:38:31;;;;;;;5.78;4.15;;;15.30;59.20;;;;;;4914588;29;20205;-50
2022/06/27 12:41:14;;;;;;;6.93;5.25;;;15.40;59.30;;;;;;4925564;23;20239;-44
2022/06/27 12:43:46;;;;;;;6.95;4.82;;;15.30;59.30;;;;;;4914318;29;20227;-44
2022/06/27 12:46:17;;;;;;;6.85;4.65;;;15.40;59.40;;;;;;4914158;29;20235;-45
2022/06/27 12:48:49;;;;;;;6.18;4.70;;;15.30;59.30;;;;;;4900540;29;20701;-44
2022/06/27 12:51:21;;;;;;;7.75;4.90;;;15.30;59.30;;;;;;4895605;29;20211;-44
2022/06/27 12:53:52;;;;;;;6.82;4.20;;;15.30;59.30;;;;;;4895875;29;20269;-44
2022/06/27 12:56:25;;;;;;;6.47;4.18;;;15.30;59.30;;;;;;4895674;29;20217;-44
2022/06/27 12:58:56;;;;;;;6.05;4.20;;;15.40;59.30;;;;;;4877149;29;20337;-44
2022/06/27 13:01:27;;;;;;;5.20;4.30;;;15.30;59.30;;;;;;4877295;29;20205;-44
2022/06/27 13:03:57;;;;;;;6.40;4.47;;;15.30;59.40;;;;;;4877097;29;20205;-44
2022/06/27 13:06:30;;;;;;;7.30;4.43;;;15.30;59.30;;;;;;4892546;29;20225;-44
2022/06/27 13:09:01;;;;;;;7.22;4.85;;;15.40;59.40;;;;;;4895012;29;20228;-44
2022/06/27 13:11:31;;;;;;;6.28;4.45;;;15.30;59.30;;;;;;4895623;29;20201;-47
2022/06/27 13:14:02;;;;;;;6.32;4.38;;;15.30;59.30;;;;;;4877124;29;20666;-45
2022/06/27 13:16:33;;;;;;;5.45;4.15;;;15.30;59.30;;;;;;4877081;29;20217;-46
2022/06/27 13:19:03;;;;;;;7.07;4.60;;;15.30;59.30;;;;;;4892599;29;20579;-45
2022/06/27 13:21:36;;;;;;;5.45;4.30;;;15.30;59.20;;;;;;4895378;29;20427;-43
2022/06/27 13:24:07;;;;;;;5.50;4.22;;;15.30;59.20;;;;;;4895556;29;20669;-44
2022/06/27 13:26:38;;;;;;;5.43;4.10;;;15.40;59.30;;;;;;4895388;29;20461;-45
2022/06/27 13:29:08;;;;;;;5.32;3.90;;;15.30;59.20;;;;;;4876254;29;20457;-45
2022/06/27 13:31:39;;;;;;;5.95;4.18;;;15.40;59.40;;;;;;4876130;29;20214;-47
2022/06/27 13:34:10;;;;;;;5.50;4.18;;;15.30;59.30;;;;;;4875823;29;20212;-44
2022/06/27 13:36:45;;;;;;;5.80;4.10;;;15.30;59.30;;;;;;4876712;29;20273;-46
2022/06/27 13:39:16;;;;;;;6.05;4.25;;;15.30;59.30;;;;;;4893518;29;20291;-45
2022/06/27 13:41:46;;;;;;;5.40;4.35;;;15.30;59.30;;;;;;4922345;23;20822;-51
2022/06/27 13:44:17;;;;;;;5.43;3.90;;;15.30;59.30;;;;;;4913372;29;20207;-47
2022/06/27 13:46:48;;;;;;;5.20;4.05;;;15.30;59.30;;;;;;4913120;29;20200;-47
2022/06/27 13:49:18;;;;;;;4.93;3.90;;;15.30;59.40;;;;;;4895429;29;20638;-49
2022/06/27 13:51:51;;;;;;;4.97;4.13;;;15.30;59.30;;;;;;4894973;29;20216;-49
2022/06/27 13:54:21;;;;;;;4.60;3.45;;;15.30;59.30;;;;;;4894639;29;20596;-46
2022/06/27 13:56:52;;;;;;;4.10;3.70;;;15.30;59.40;;;;;;4895114;29;20197;-51
2022/06/27 13:59:23;;;;;;;5.82;4.22;;;15.30;59.40;;;;;;4907388;29;20590;-52
2022/06/27 14:01:54;;;;;;;6.88;4.03;;;15.30;59.40;;;;;;4894945;29;20607;-49
2022/06/27 14:04:24;;;;;;;5.65;4.00;;;15.30;59.30;;;;;;4893846;29;20673;-49
2022/06/27 14:09:43;;;;;;;5.22;4.03;;;15.30;59.30;;;;;;4894117;29;20235;-51
2022/06/27 14:12:14;;;;;;;6.07;4.13;;;15.30;59.30;;;;;;4896609;29;20196;-49
2022/06/27 14:14:45;;;;;;;5.80;4.03;;;15.30;59.40;;;;;;4914082;29;20224;-51
2022/06/27 14:17:16;;;;;;;5.38;4.05;;;15.30;59.40;;;;;;4911756;29;20200;-52